Time;durP1;ratioP1;P1;durP2;ratioP2;P2;SDS_P1;SDS_P2;PMS_P1;PMS_P2;Temp;Humidity;BMP_temperature;BMP_pressure;BME280_temperature;BME280_humidity;BME280_pressure;Samples;Min_cycle;Max_cycle;Signal;HPM_P1;HPM_P2
2021/12/25 00:01:40;;;;;;;1.15;0.80;;;20.40;42.50;;;;;;5045512;28;44726;-62
2021/12/25 00:04:08;;;;;;;0.70;0.70;;;20.40;42.50;;;;;;5045773;28;43542;-62
2021/12/25 00:06:36;;;;;;;0.70;0.50;;;20.40;42.50;;;;;;5044703;28;43437;-63
2021/12/25 00:09:05;;;;;;;0.80;0.65;;;20.40;42.50;;;;;;5045300;28;43494;-62
2021/12/25 00:11:33;;;;;;;1.15;0.75;;;20.40;42.50;;;;;;5042963;28;44712;-62
2021/12/25 00:14:09;;;;;;;1.08;0.85;;;20.40;42.50;;;;;;5076871;27;43477;-63
2021/12/25 00:16:42;;;;;;;0.88;0.82;;;20.40;42.40;;;;;;5045286;28;43443;-63
2021/12/25 00:19:09;;;;;;;0.80;0.57;;;20.40;42.30;;;;;;5045422;28;43536;-63
2021/12/25 00:21:37;;;;;;;0.50;0.50;;;20.40;42.20;;;;;;5045243;28;43810;-62
2021/12/25 00:24:05;;;;;;;1.08;0.70;;;20.30;42.20;;;;;;5045898;28;43387;-62
2021/12/25 00:26:50;;;;;;;0.70;0.60;;;20.30;42.20;;;;;;5045783;28;43494;-62
2021/12/25 00:29:36;;;;;;;1.33;0.60;;;20.30;42.20;;;;;;5044046;28;43539;-62
2021/12/25 00:34:39;;;;;;;1.15;0.77;;;20.30;42.30;;;;;;5045792;28;43818;-63
2021/12/25 00:37:07;;;;;;;1.10;0.75;;;20.30;42.20;;;;;;5045493;28;43402;-60
2021/12/25 00:39:36;;;;;;;0.52;0.50;;;20.30;42.10;;;;;;5077148;27;43487;-62
2021/12/25 00:42:06;;;;;;;1.55;0.80;;;20.30;42.10;;;;;;5044625;28;44725;-63
2021/12/25 00:44:33;;;;;;;1.25;0.50;;;20.30;42.10;;;;;;5045078;28;43396;-60
2021/12/25 00:47:03;;;;;;;0.82;0.80;;;20.30;42.00;;;;;;5044167;28;43438;-63
2021/12/25 00:49:31;;;;;;;0.93;0.88;;;20.20;42.10;;;;;;5045426;28;43533;-62
2021/12/25 00:51:59;;;;;;;2.25;0.70;;;20.20;42.20;;;;;;5044909;28;43795;-63
2021/12/25 00:54:26;;;;;;;0.77;0.77;;;20.20;42.80;;;;;;5044867;28;43804;-63
2021/12/25 00:56:54;;;;;;;1.15;0.70;;;20.20;42.20;;;;;;5044451;28;43534;-63
2021/12/25 00:59:21;;;;;;;1.10;0.95;;;20.10;42.10;;;;;;5077556;27;44037;-63
2021/12/25 01:01:49;;;;;;;0.80;0.60;;;20.10;42.10;;;;;;5043133;28;43875;-60
2021/12/25 01:04:17;;;;;;;0.82;0.60;;;20.10;42.00;;;;;;5058703;28;43811;-60
2021/12/25 01:06:47;;;;;;;0.60;0.60;;;20.10;41.90;;;;;;5043759;28;43464;-60
2021/12/25 01:09:14;;;;;;;0.77;0.65;;;20.20;41.90;;;;;;5042978;28;43633;-60
2021/12/25 01:11:47;;;;;;;0.82;0.77;;;20.20;41.80;;;;;;5041148;28;44067;-63
2021/12/25 01:14:41;;;;;;;0.70;0.70;;;20.10;41.80;;;;;;5042011;28;43514;-60
2021/12/25 01:17:28;;;;;;;0.68;0.65;;;20.10;41.80;;;;;;5042955;28;43469;-63
2021/12/25 01:48:47;;;;;;;1.08;0.80;;;19.80;41.80;;;;;;5042993;28;43512;-59
2021/12/25 01:51:14;;;;;;;0.60;0.60;;;19.80;41.80;;;;;;5044044;28;43544;-61
2021/12/25 01:53:42;;;;;;;0.70;0.60;;;19.80;41.70;;;;;;5043998;28;43594;-62
2021/12/25 01:56:09;;;;;;;0.75;0.50;;;19.90;41.60;;;;;;5042886;28;44691;-62
2021/12/25 01:58:37;;;;;;;1.00;0.50;;;19.80;41.60;;;;;;5042792;28;43954;-60
2021/12/25 02:01:07;;;;;;;1.25;0.60;;;19.80;41.50;;;;;;5059378;28;43488;-62
2021/12/25 02:03:37;;;;;;;0.57;0.57;;;19.70;41.70;;;;;;5042913;28;43387;-61
2021/12/25 02:06:08;;;;;;;0.50;0.50;;;19.70;41.70;;;;;;5041167;28;43852;-60
2021/12/25 02:08:36;;;;;;;;;;;19.70;41.70;;;;;;5076592;28;43943;-60
2021/12/25 02:11:04;;;;;;;0.60;0.52;;;19.70;41.80;;;;;;5043578;28;43456;-60
2021/12/25 02:13:42;;;;;;;0.68;0.47;;;19.60;41.80;;;;;;5075667;27;43494;-60
2021/12/25 02:16:17;;;;;;;0.45;0.45;;;19.60;41.80;;;;;;5042570;28;44882;-60
2021/12/25 02:21:44;;;;;;;1.25;0.68;;;19.60;41.90;;;;;;5073338;27;43482;-63
2021/12/25 02:24:12;;;;;;;0.85;0.52;;;19.50;41.80;;;;;;5043946;28;43445;-60
2021/12/25 02:26:43;;;;;;;0.45;0.45;;;19.50;41.80;;;;;;5075963;27;44795;-62
2021/12/25 02:29:11;;;;;;;0.50;0.50;;;19.50;41.80;;;;;;5043670;28;43480;-61
2021/12/25 02:31:39;;;;;;;0.30;0.30;;;19.50;42.50;;;;;;5075916;27;43466;-62
2021/12/25 02:34:06;;;;;;;0.40;0.40;;;19.50;41.80;;;;;;5043899;28;43451;-62
2021/12/25 02:36:34;;;;;;;0.70;0.70;;;19.40;41.80;;;;;;5043587;28;44826;-62
2021/12/25 02:39:02;;;;;;;0.40;0.40;;;19.40;41.80;;;;;;5042242;28;43425;-62
2021/12/25 02:41:29;;;;;;;0.40;0.40;;;19.40;41.80;;;;;;5075776;28;43387;-62
2021/12/25 02:43:57;;;;;;;0.50;0.43;;;19.40;41.90;;;;;;5076564;28;43576;-60
2021/12/25 02:46:37;;;;;;;0.73;0.60;;;19.40;41.90;;;;;;5075424;28;44775;-62
2021/12/25 02:49:13;;;;;;;0.50;0.50;;;19.40;41.80;;;;;;5063713;27;43475;-63
2021/12/25 02:51:44;;;;;;;0.75;0.68;;;19.40;41.80;;;;;;5042071;28;43384;-59
2021/12/25 02:54:12;;;;;;;0.68;0.55;;;19.40;41.70;;;;;;5075833;28;43573;-62
2021/12/25 02:56:41;;;;;;;0.57;0.50;;;19.40;41.60;;;;;;5041777;28;44319;-60
2021/12/25 02:59:12;;;;;;;0.70;0.50;;;19.50;41.50;;;;;;5075686;28;44126;-63
2021/12/25 03:02:16;;;;;;;0.43;0.38;;;19.50;41.40;;;;;;5038935;28;43453;-62
2021/12/25 03:04:47;;;;;;;0.50;0.50;;;19.50;41.30;;;;;;5074792;28;43602;-62
2021/12/25 03:07:15;;;;;;;0.60;0.50;;;19.50;41.30;;;;;;5042788;28;44976;-62
2021/12/25 03:09:44;;;;;;;0.40;0.40;;;19.50;41.30;;;;;;5039155;28;43675;-61
2021/12/25 03:12:14;;;;;;;0.30;0.30;;;19.50;41.30;;;;;;5041382;28;43508;-62
2021/12/25 03:15:26;;;;;;;0.73;0.70;;;19.40;41.30;;;;;;5043535;28;43496;-62
2021/12/25 03:17:38;;;;;;;0.40;0.40;;;19.40;41.30;;;;;;5028024;28;44739;-62
2021/12/25 03:20:08;;;;;;;0.73;0.50;;;19.40;41.40;;;;;;5040169;28;43558;-61
2021/12/25 03:22:37;;;;;;;1.10;0.70;;;19.30;41.30;;;;;;5033291;28;43502;-62
2021/12/25 03:25:10;;;;;;;0.80;0.50;;;19.40;41.30;;;;;;5043573;28;43424;-62
2021/12/25 03:27:39;;;;;;;0.60;0.47;;;19.40;41.20;;;;;;5046370;28;44244;-62
2021/12/25 03:30:09;;;;;;;0.50;0.50;;;19.40;41.20;;;;;;5044899;28;43515;-62
2021/12/25 03:32:37;;;;;;;0.38;0.38;;;19.40;41.20;;;;;;5078718;27;43452;-62
2021/12/25 03:35:06;;;;;;;0.50;0.50;;;19.30;41.10;;;;;;5073207;27;43574;-61
2021/12/25 03:37:34;;;;;;;0.90;0.73;;;19.30;41.10;;;;;;5046015;28;43787;-62
2021/12/25 03:40:01;;;;;;;0.50;0.50;;;19.30;41.20;;;;;;5078996;28;43462;-62
2021/12/25 03:42:28;;;;;;;0.43;0.43;;;19.20;41.20;;;;;;5078628;28;43466;-61
2021/12/25 03:44:56;;;;;;;0.40;0.40;;;19.30;41.30;;;;;;5046340;28;43528;-62
2021/12/25 03:47:35;;;;;;;0.30;0.30;;;19.30;41.20;;;;;;5044776;28;45007;-61
2021/12/25 03:53:23;;;;;;;0.40;0.40;;;19.20;41.20;;;;;;5044937;28;43499;-62
2021/12/25 03:58:37;;;;;;;0.55;0.55;;;19.10;41.20;;;;;;5046182;28;44991;-62
2021/12/25 04:01:53;;;;;;;0.60;0.60;;;19.10;41.30;;;;;;5045720;28;43515;-62
2021/12/25 04:06:46;;;;;;;0.50;0.40;;;19.00;41.30;;;;;;5044683;28;43509;-61
2021/12/25 04:09:25;;;;;;;0.70;0.50;;;19.00;41.30;;;;;;5074961;28;44611;-61
2021/12/25 04:11:55;;;;;;;0.50;0.40;;;19.00;41.30;;;;;;5073696;28;43441;-61
2021/12/25 04:14:23;;;;;;;0.40;0.40;;;19.00;41.30;;;;;;5027977;28;43535;-62
2021/12/25 04:16:51;;;;;;;0.35;0.35;;;19.00;41.40;;;;;;5042293;28;43594;-61
2021/12/25 04:19:21;;;;;;;0.40;0.40;;;19.00;41.20;;;;;;5044275;28;43997;-62
2021/12/25 04:22:04;;;;;;;0.90;0.50;;;18.90;41.30;;;;;;5077801;28;43604;-61
2021/12/25 04:24:38;;;;;;;0.57;0.50;;;18.90;41.30;;;;;;5044553;28;43451;-62
2021/12/25 04:27:10;;;;;;;0.40;0.40;;;18.90;41.30;;;;;;5044318;28;43456;-62
2021/12/25 04:29:44;;;;;;;1.30;0.43;;;18.90;41.30;;;;;;5045591;28;44670;-62
2021/12/25 05:05:41;;;;;;;0.80;0.45;;;18.80;41.20;;;;;;5003360;28;43959;-61
2021/12/25 05:08:28;;;;;;;1.02;0.65;;;18.80;41.20;;;;;;5043434;28;43391;-62
2021/12/25 05:10:57;;;;;;;0.55;0.50;;;18.80;41.10;;;;;;5045272;28;43460;-61
2021/12/25 05:13:25;;;;;;;0.35;0.35;;;18.80;41.10;;;;;;5045484;28;44644;-62
2021/12/25 05:15:53;;;;;;;0.70;0.50;;;18.80;41.10;;;;;;5077443;27;43489;-62
2021/12/25 05:18:21;;;;;;;0.40;0.40;;;18.80;41.00;;;;;;5043357;28;43404;-62
2021/12/25 05:20:49;;;;;;;0.30;0.30;;;18.80;41.00;;;;;;5077376;28;43517;-61
2021/12/25 05:23:17;;;;;;;0.43;0.43;;;18.80;40.90;;;;;;5076768;28;44922;-61
2021/12/25 05:25:44;;;;;;;0.45;0.40;;;18.80;40.90;;;;;;5077403;27;43436;-61
2021/12/25 05:28:14;;;;;;;0.40;0.40;;;18.80;41.00;;;;;;5044712;28;43400;-62
2021/12/25 05:30:41;;;;;;;0.45;0.45;;;18.80;41.00;;;;;;5077074;28;43450;-63
2021/12/25 05:33:27;;;;;;;0.95;0.40;;;18.80;41.00;;;;;;5041728;28;43884;-62
2021/12/25 05:36:21;;;;;;;0.40;0.40;;;18.80;41.00;;;;;;5040349;28;43511;-61
2021/12/25 05:39:08;;;;;;;0.52;0.52;;;18.80;41.00;;;;;;5077367;28;43503;-62
2021/12/25 05:41:37;;;;;;;0.63;0.40;;;18.80;41.00;;;;;;5059058;28;43685;-61
2021/12/25 05:44:10;;;;;;;0.40;0.40;;;18.80;41.00;;;;;;5072167;27;43783;-61
2021/12/25 05:47:03;;;;;;;0.30;0.30;;;18.80;41.00;;;;;;5076734;28;43458;-61
2021/12/25 05:49:35;;;;;;;0.45;0.45;;;18.70;40.90;;;;;;5073568;28;43440;-60
2021/12/25 05:52:25;;;;;;;0.35;0.35;;;18.80;41.00;;;;;;5044032;28;43506;-62
2021/12/25 05:55:01;;;;;;;0.50;0.45;;;18.80;41.00;;;;;;5044079;28;45027;-61
2021/12/25 05:57:47;;;;;;;0.38;0.38;;;18.70;41.00;;;;;;5043191;28;43644;-61
2021/12/25 06:00:47;;;;;;;0.75;0.50;;;18.70;40.90;;;;;;5043570;28;43392;-61
2021/12/25 06:03:15;;;;;;;0.55;0.40;;;18.70;40.90;;;;;;5044020;28;43533;-62
2021/12/25 06:05:43;;;;;;;0.47;0.47;;;18.70;41.00;;;;;;5042821;28;44988;-61
2021/12/25 06:08:10;;;;;;;0.75;0.40;;;18.70;41.70;;;;;;5043776;28;43459;-61
2021/12/25 06:10:38;;;;;;;0.63;0.47;;;18.70;40.90;;;;;;5076563;27;43484;-61
2021/12/25 06:13:10;;;;;;;0.22;0.22;;;18.80;41.00;;;;;;5043959;28;43609;-62
2021/12/25 06:15:39;;;;;;;0.35;0.35;;;18.70;40.90;;;;;;5032001;28;43957;-63
2021/12/25 06:18:29;;;;;;;;;;;18.70;40.90;;;;;;5038782;28;43564;-62
2021/12/25 06:21:09;;;;;;;0.60;0.60;;;18.70;40.90;;;;;;5042593;28;43424;-62
2021/12/25 06:24:15;;;;;;;0.25;0.25;;;18.70;40.90;;;;;;4986465;28;43509;-61
2021/12/25 06:27:12;;;;;;;1.35;0.50;;;18.70;41.00;;;;;;4978815;28;44981;-62
2021/12/25 06:30:09;;;;;;;0.32;0.32;;;18.70;41.00;;;;;;4981642;28;43754;-61
2021/12/25 06:33:00;;;;;;;;;;;18.70;40.90;;;;;;5035867;28;43433;-61
2021/12/25 06:35:53;;;;;;;0.43;0.43;;;18.70;40.90;;;;;;5019082;28;43489;-61
2021/12/25 06:38:41;;;;;;;1.17;0.60;;;18.70;40.90;;;;;;5076266;28;44023;-61
2021/12/25 06:41:28;;;;;;;0.85;0.50;;;18.70;40.90;;;;;;5042088;28;43414;-61
2021/12/25 06:43:56;;;;;;;1.33;0.50;;;18.70;40.90;;;;;;5075936;28;44012;-62
2021/12/25 06:46:37;;;;;;;0.77;0.50;;;18.70;40.80;;;;;;5039367;28;44070;-61
2021/12/25 06:49:05;;;;;;;0.40;0.40;;;18.70;40.80;;;;;;5075753;28;43926;-62
2021/12/25 06:52:11;;;;;;;0.35;0.30;;;18.70;40.80;;;;;;5000506;28;43488;-61
2021/12/25 06:54:42;;;;;;;0.93;0.70;;;18.70;40.90;;;;;;5001220;28;44072;-62
2021/12/25 06:57:20;;;;;;;0.93;0.40;;;18.80;40.90;;;;;;5025452;28;43557;-61
2021/12/25 06:59:48;;;;;;;0.60;0.50;;;18.80;40.90;;;;;;5041629;28;43949;-62
2021/12/25 07:02:17;;;;;;;0.50;0.50;;;18.80;40.90;;;;;;5075215;27;43987;-61
2021/12/25 07:05:03;;;;;;;0.90;0.47;;;18.80;41.00;;;;;;5036243;28;43531;-61
2021/12/25 07:08:05;;;;;;;0.55;0.50;;;18.80;40.90;;;;;;5039716;28;43520;-63
2021/12/25 07:10:52;;;;;;;0.30;0.30;;;18.80;40.90;;;;;;5032366;28;43635;-62
2021/12/25 07:13:46;;;;;;;0.35;0.35;;;18.90;40.90;;;;;;5042835;28;43592;-63
2021/12/25 07:16:32;;;;;;;0.40;0.40;;;18.90;40.90;;;;;;5061095;28;43408;-62
2021/12/25 07:19:26;;;;;;;0.47;0.47;;;18.90;41.00;;;;;;5041045;28;43532;-62
2021/12/25 07:22:23;;;;;;;0.60;0.60;;;18.90;40.90;;;;;;5029526;28;43947;-63
2021/12/25 07:25:15;;;;;;;0.50;0.50;;;18.90;41.00;;;;;;5075505;28;43410;-62
2021/12/25 07:28:02;;;;;;;0.57;0.57;;;18.90;41.00;;;;;;5043800;28;43499;-63
2021/12/25 07:30:30;;;;;;;1.35;0.50;;;18.90;41.00;;;;;;5042867;28;43458;-59
2021/12/25 07:32:57;;;;;;;0.60;0.60;;;18.90;41.10;;;;;;5042392;28;43796;-63
2021/12/25 07:35:26;;;;;;;1.08;0.63;;;18.90;41.00;;;;;;5042816;28;43767;-62
2021/12/25 07:37:55;;;;;;;0.70;0.65;;;19.00;41.00;;;;;;5042584;28;43456;-62
2021/12/25 07:40:23;;;;;;;0.50;0.40;;;18.90;40.90;;;;;;5042917;28;43494;-62
2021/12/25 07:42:50;;;;;;;0.50;0.50;;;18.90;40.90;;;;;;5042146;28;44624;-62
2021/12/25 07:45:41;;;;;;;0.77;0.60;;;19.00;40.90;;;;;;5040772;28;43968;-62
2021/12/25 07:48:08;;;;;;;0.65;0.55;;;19.00;40.70;;;;;;5043057;28;43418;-63
2021/12/25 07:50:36;;;;;;;0.73;0.60;;;19.00;40.90;;;;;;5042129;28;43474;-63
2021/12/25 07:53:03;;;;;;;0.88;0.55;;;19.00;40.90;;;;;;5041622;28;43815;-61
2021/12/25 07:55:32;;;;;;;0.40;0.40;;;19.00;40.90;;;;;;5040597;28;43515;-61
2021/12/25 07:58:04;;;;;;;0.40;0.40;;;19.00;40.90;;;;;;5042801;28;43496;-62
2021/12/25 08:00:31;;;;;;;0.32;0.32;;;18.90;41.00;;;;;;5042225;28;43438;-61
2021/12/25 08:02:59;;;;;;;0.82;0.50;;;18.90;41.70;;;;;;5041955;28;44163;-62
2021/12/25 08:05:27;;;;;;;0.40;0.40;;;19.00;41.00;;;;;;5042406;28;43429;-62
2021/12/25 08:07:54;;;;;;;0.85;0.70;;;18.90;41.00;;;;;;5041778;28;43438;-62
2021/12/25 08:10:22;;;;;;;0.80;0.65;;;19.00;41.40;;;;;;5039439;28;43475;-62
2021/12/25 08:12:55;;;;;;;0.30;0.30;;;19.00;41.10;;;;;;5043843;28;44689;-61
2021/12/25 08:15:25;;;;;;;0.70;0.50;;;18.90;41.20;;;;;;5044381;28;43944;-62
2021/12/25 08:17:55;;;;;;;0.38;0.38;;;18.90;41.20;;;;;;5035453;28;43487;-62
2021/12/25 08:20:34;;;;;;;0.45;0.43;;;18.90;41.20;;;;;;5044058;28;43669;-61
2021/12/25 08:23:21;;;;;;;0.40;0.35;;;19.00;41.20;;;;;;5070475;28;44865;-62
2021/12/25 08:26:14;;;;;;;0.77;0.60;;;19.10;41.20;;;;;;5019068;28;43535;-62
2021/12/25 08:29:04;;;;;;;0.50;0.50;;;19.00;41.20;;;;;;5041375;28;43526;-62
2021/12/25 08:31:50;;;;;;;0.40;0.40;;;19.10;41.20;;;;;;5041354;28;43439;-62
2021/12/25 08:34:38;;;;;;;0.95;0.50;;;19.10;41.10;;;;;;5043567;28;43800;-62
2021/12/25 08:37:12;;;;;;;0.75;0.52;;;19.10;41.20;;;;;;5042656;28;43431;-62
2021/12/25 08:39:40;;;;;;;1.20;0.70;;;19.10;41.10;;;;;;5044293;28;43594;-61
2021/12/25 08:42:09;;;;;;;0.65;0.55;;;19.10;41.00;;;;;;5043203;28;43916;-62
2021/12/25 08:44:42;;;;;;;3.33;0.70;;;19.10;41.20;;;;;;5044034;28;44654;-61
2021/12/25 08:47:12;;;;;;;2.38;0.80;;;19.10;41.30;;;;;;5043306;28;43455;-62
2021/12/25 08:49:41;;;;;;;0.83;0.77;;;19.10;41.40;;;;;;5044174;28;43427;-62
2021/12/25 08:52:13;;;;;;;2.55;0.70;;;19.10;41.30;;;;;;5041666;28;43630;-62
2021/12/25 08:54:40;;;;;;;;;;;19.20;41.20;;;;;;5043759;28;45798;-63
2021/12/25 08:57:08;;;;;;;2.55;1.90;;;19.20;41.10;;;;;;5043385;28;43484;-62
2021/12/25 08:59:37;;;;;;;2.30;1.60;;;19.30;41.10;;;;;;5042917;28;43535;-61
2021/12/25 09:02:09;;;;;;;1.80;1.52;;;19.30;41.10;;;;;;5043284;28;43482;-62
2021/12/25 09:04:38;;;;;;;2.60;1.40;;;19.40;41.00;;;;;;5044968;28;43882;-60
2021/12/25 09:07:07;;;;;;;3.47;1.65;;;19.40;41.00;;;;;;5043474;28;43397;-61
2021/12/25 09:09:35;;;;;;;1.88;1.60;;;19.50;40.90;;;;;;5042114;28;43488;-62
2021/12/25 09:12:05;;;;;;;3.38;1.52;;;19.50;40.90;;;;;;5042499;28;43448;-60
2021/12/25 09:14:32;;;;;;;2.17;1.60;;;19.60;40.90;;;;;;5044132;28;43795;-61
2021/12/25 09:17:00;;;;;;;2.58;1.50;;;19.60;40.70;;;;;;5043244;28;43642;-60
2021/12/25 09:19:27;;;;;;;3.55;1.50;;;19.70;40.70;;;;;;5043745;28;43486;-62
2021/12/25 09:21:55;;;;;;;1.30;1.15;;;19.80;40.70;;;;;;5043715;28;43458;-63
2021/12/25 09:24:22;;;;;;;1.83;1.33;;;19.90;40.60;;;;;;5040641;28;43577;-61
2021/12/25 09:26:50;;;;;;;1.88;1.10;;;20.00;40.40;;;;;;5043084;28;43452;-63
2021/12/25 09:29:17;;;;;;;1.40;1.30;;;20.10;40.20;;;;;;5035729;28;43470;-61
2021/12/25 09:31:45;;;;;;;1.58;1.25;;;20.20;40.60;;;;;;5043257;28;43527;-62
2021/12/25 09:34:12;;;;;;;3.60;1.27;;;20.40;40.00;;;;;;5043391;28;44699;-63
2021/12/25 09:36:40;;;;;;;1.17;1.08;;;20.50;39.50;;;;;;5042305;28;43476;-62
2021/12/25 09:39:08;;;;;;;1.95;1.05;;;20.70;39.40;;;;;;5043240;28;43431;-63
2021/12/25 09:41:36;;;;;;;3.28;1.10;;;20.80;39.30;;;;;;5043008;28;43442;-62
2021/12/25 09:44:05;;;;;;;1.10;1.00;;;21.00;38.90;;;;;;5043245;28;43818;-61
2021/12/25 09:46:34;;;;;;;2.35;1.23;;;21.10;38.60;;;;;;5042163;28;43726;-62
2021/12/25 09:49:01;;;;;;;1.10;0.98;;;21.20;38.50;;;;;;5042959;28;43451;-63
2021/12/25 09:51:29;;;;;;;1.63;0.98;;;21.30;38.30;;;;;;5042750;28;44157;-62
2021/12/25 09:53:59;;;;;;;1.58;1.00;;;21.50;38.20;;;;;;5042397;28;43798;-63
2021/12/25 09:56:28;;;;;;;1.77;0.88;;;21.60;38.10;;;;;;5040055;28;43460;-63
2021/12/25 09:58:56;;;;;;;1.65;0.98;;;21.70;38.10;;;;;;5042736;28;43471;-63
2021/12/25 10:01:44;;;;;;;1.02;0.80;;;21.70;37.60;;;;;;5041580;28;43585;-64
2021/12/25 10:04:37;;;;;;;2.60;1.00;;;21.80;37.80;;;;;;5042665;28;43787;-63
2021/12/25 10:07:24;;;;;;;3.10;0.90;;;22.00;37.60;;;;;;5041496;28;43467;-63
2021/12/25 10:10:05;;;;;;;2.80;0.90;;;22.10;37.30;;;;;;5039643;28;43486;-62
2021/12/25 10:12:44;;;;;;;0.88;0.88;;;22.10;37.10;;;;;;5041751;28;43522;-62
2021/12/25 10:15:22;;;;;;;0.85;0.65;;;22.20;37.20;;;;;;5042808;28;44966;-63
2021/12/25 10:17:53;;;;;;;0.80;0.80;;;22.30;37.20;;;;;;5037895;28;43711;-62
2021/12/25 10:20:40;;;;;;;0.70;0.70;;;22.30;37.00;;;;;;5041689;28;43438;-62
2021/12/25 10:23:13;;;;;;;1.98;0.90;;;22.30;37.00;;;;;;5041217;28;43469;-62
2021/12/25 10:25:48;;;;;;;1.02;0.93;;;22.30;37.10;;;;;;5041643;28;44663;-62
2021/12/25 10:28:18;;;;;;;2.55;0.90;;;22.40;36.70;;;;;;5040757;28;43700;-62
2021/12/25 10:30:54;;;;;;;0.80;0.80;;;22.30;36.60;;;;;;5034460;28;43531;-62
2021/12/25 10:33:41;;;;;;;1.23;0.50;;;22.40;36.60;;;;;;5041154;28;43483;-62
2021/12/25 10:36:22;;;;;;;2.15;0.90;;;22.40;36.60;;;;;;5040693;28;44383;-62
2021/12/25 10:39:12;;;;;;;0.68;0.68;;;22.40;36.50;;;;;;5042075;28;43510;-62
2021/12/25 10:42:11;;;;;;;1.23;0.73;;;22.40;36.70;;;;;;5041495;28;43487;-61
2021/12/25 10:44:54;;;;;;;0.98;0.73;;;22.40;36.80;;;;;;5045504;28;43890;-63
2021/12/25 10:47:25;;;;;;;1.38;0.57;;;22.40;36.50;;;;;;5041426;28;43839;-63
2021/12/25 10:50:01;;;;;;;1.80;0.75;;;22.50;36.70;;;;;;5042000;28;43471;-62
2021/12/25 10:52:39;;;;;;;1.35;0.88;;;22.50;36.50;;;;;;5041339;28;43378;-62
2021/12/25 10:55:22;;;;;;;2.22;1.00;;;22.50;36.50;;;;;;5041916;28;43454;-62
2021/12/25 10:57:58;;;;;;;1.98;0.63;;;22.60;36.60;;;;;;5073604;27;46334;-62
2021/12/25 11:00:33;;;;;;;0.70;0.70;;;22.60;36.60;;;;;;5072993;27;43488;-62
2021/12/25 11:03:03;;;;;;;1.50;0.90;;;22.60;36.80;;;;;;5040216;28;43977;-62
2021/12/25 11:05:46;;;;;;;0.70;0.70;;;22.60;36.50;;;;;;5038749;28;43511;-63
2021/12/25 11:08:19;;;;;;;0.68;0.60;;;22.70;36.80;;;;;;5040693;28;45003;-62
2021/12/25 11:10:51;;;;;;;0.60;0.60;;;22.70;36.50;;;;;;5041426;28;44028;-62
2021/12/25 11:13:33;;;;;;;0.93;0.73;;;22.70;36.80;;;;;;5041287;28;43614;-62
2021/12/25 11:16:12;;;;;;;1.65;1.00;;;22.70;36.80;;;;;;5041159;28;43482;-62
2021/12/25 11:19:04;;;;;;;1.70;0.90;;;22.80;37.00;;;;;;5056655;28;44030;-62
2021/12/25 11:21:54;;;;;;;0.73;0.73;;;22.80;37.00;;;;;;5040076;28;43586;-62
2021/12/25 11:24:27;;;;;;;1.25;0.90;;;22.90;36.60;;;;;;5036242;28;43426;-62
2021/12/25 11:27:02;;;;;;;0.65;0.55;;;22.90;36.60;;;;;;5040840;28;43454;-62
2021/12/25 11:29:33;;;;;;;0.75;0.75;;;22.90;37.00;;;;;;5039609;28;44936;-62
2021/12/25 11:32:03;;;;;;;0.80;0.80;;;22.90;36.40;;;;;;5037497;28;43493;-62
2021/12/25 11:34:31;;;;;;;0.90;0.90;;;23.00;36.80;;;;;;5041627;28;43412;-62
2021/12/25 11:37:00;;;;;;;1.08;0.60;;;23.00;36.90;;;;;;5040821;28;43509;-63
2021/12/25 11:39:30;;;;;;;1.10;0.77;;;23.00;36.90;;;;;;5041491;28;44726;-62
2021/12/25 11:42:05;;;;;;;0.95;0.57;;;23.00;36.90;;;;;;5040751;28;43680;-63
2021/12/25 11:44:43;;;;;;;0.93;0.77;;;23.00;36.90;;;;;;5040808;28;43481;-62
2021/12/25 11:47:28;;;;;;;1.08;0.50;;;23.00;36.90;;;;;;5044287;28;43649;-62
2021/12/25 11:49:58;;;;;;;0.65;0.60;;;23.00;36.50;;;;;;5044933;28;43792;-63
2021/12/25 11:52:35;;;;;;;0.73;0.70;;;23.00;36.60;;;;;;5044469;28;43950;-63
2021/12/25 11:58:40;;;;;;;0.50;0.50;;;23.00;36.60;;;;;;5043948;28;43433;-62
2021/12/25 12:01:26;;;;;;;1.57;0.87;;;22.90;36.80;;;;;;5044327;28;44733;-62
2021/12/25 12:03:56;;;;;;;0.73;0.70;;;22.90;36.90;;;;;;5041726;28;43530;-64
2021/12/25 12:09:22;;;;;;;1.00;0.90;;;23.00;36.90;;;;;;5042721;28;43758;-63
2021/12/25 12:12:12;;;;;;;0.60;0.60;;;22.90;37.10;;;;;;5043217;28;43918;-64
2021/12/25 12:15:15;;;;;;;0.93;0.50;;;22.90;37.00;;;;;;5042437;28;43591;-63
2021/12/25 12:18:39;;;;;;;0.77;0.63;;;22.90;36.90;;;;;;5057845;28;43463;-62
2021/12/25 12:21:15;;;;;;;0.70;0.70;;;22.80;36.80;;;;;;5043421;28;43634;-64
2021/12/25 12:26:50;;;;;;;0.60;0.60;;;22.80;36.90;;;;;;5041505;28;43581;-64
2021/12/25 12:29:51;;;;;;;0.70;0.70;;;22.80;37.00;;;;;;5044143;28;43590;-63
2021/12/25 12:32:23;;;;;;;1.02;0.93;;;22.70;36.90;;;;;;5030251;28;43616;-63
2021/12/25 12:34:53;;;;;;;2.35;1.02;;;22.70;37.10;;;;;;5044343;28;43964;-63
2021/12/25 12:37:21;;;;;;;0.88;0.57;;;22.70;37.10;;;;;;5043591;28;43423;-64
2021/12/25 12:39:59;;;;;;;0.80;0.57;;;22.60;37.10;;;;;;5043325;28;43396;-62
2021/12/25 12:42:41;;;;;;;0.95;0.82;;;22.60;37.10;;;;;;5043408;28;43495;-64
2021/12/25 12:45:21;;;;;;;1.20;0.75;;;22.60;37.10;;;;;;5076379;27;43996;-63
2021/12/25 12:48:15;;;;;;;0.40;0.40;;;22.60;37.30;;;;;;5041999;28;43498;-62
2021/12/25 12:51:02;;;;;;;0.50;0.50;;;22.60;37.40;;;;;;5042932;28;43499;-63
2021/12/25 12:53:38;;;;;;;0.70;0.70;;;22.60;37.40;;;;;;5043464;28;43538;-62
2021/12/25 12:56:06;;;;;;;0.75;0.75;;;22.60;37.40;;;;;;5042940;28;43804;-64
2021/12/25 12:58:33;;;;;;;0.73;0.73;;;22.60;37.50;;;;;;5042853;28;43702;-62
2021/12/25 13:01:09;;;;;;;0.98;0.75;;;22.60;37.50;;;;;;5043597;28;43471;-64
2021/12/25 13:03:37;;;;;;;0.70;0.70;;;22.50;37.40;;;;;;5043646;28;43586;-65
2021/12/25 13:06:12;;;;;;;0.60;0.60;;;22.50;37.60;;;;;;5042299;28;43550;-64
2021/12/25 13:08:42;;;;;;;0.73;0.70;;;22.50;37.70;;;;;;5041816;28;43408;-63
2021/12/25 13:11:54;;;;;;;1.00;0.65;;;22.50;37.70;;;;;;5042747;28;43482;-63
2021/12/25 13:14:08;;;;;;;0.45;0.45;;;22.50;37.70;;;;;;5042777;28;43623;-64
2021/12/25 13:16:41;;;;;;;1.10;0.60;;;22.60;37.80;;;;;;5073278;27;44764;-63
2021/12/25 13:19:09;;;;;;;0.75;0.75;;;22.60;37.90;;;;;;5040724;28;43941;-64
2021/12/25 13:21:38;;;;;;;0.50;0.50;;;22.60;37.90;;;;;;5075190;27;43642;-64
2021/12/25 13:24:14;;;;;;;1.13;0.50;;;22.60;38.00;;;;;;5043360;28;43478;-64
2021/12/25 13:26:47;;;;;;;0.93;0.80;;;22.60;38.00;;;;;;5042575;28;44062;-63
2021/12/25 13:29:19;;;;;;;0.80;0.80;;;22.60;38.10;;;;;;5042161;28;43442;-63
2021/12/25 13:31:48;;;;;;;1.30;0.70;;;22.60;38.10;;;;;;5040882;28;43498;-62
2021/12/25 13:34:18;;;;;;;0.60;0.60;;;22.60;38.10;;;;;;5036509;28;43650;-63
2021/12/25 13:36:49;;;;;;;0.68;0.55;;;22.60;38.20;;;;;;5041897;28;44715;-63
2021/12/25 13:39:23;;;;;;;0.60;0.60;;;22.60;38.10;;;;;;5043144;28;43464;-64
2021/12/25 13:41:56;;;;;;;1.67;1.23;;;22.60;38.20;;;;;;5041034;28;43426;-63
2021/12/25 13:44:27;;;;;;;1.38;0.70;;;22.60;38.20;;;;;;5039947;28;44065;-63
2021/12/25 13:47:26;;;;;;;0.82;0.80;;;22.60;38.30;;;;;;5042134;28;43738;-63
2021/12/25 13:49:56;;;;;;;1.10;0.70;;;22.50;38.00;;;;;;5043095;28;43706;-63
2021/12/25 13:52:36;;;;;;;0.82;0.77;;;22.50;38.20;;;;;;5042968;28;43496;-63
2021/12/25 13:55:19;;;;;;;0.77;0.77;;;22.50;38.20;;;;;;5045203;28;43503;-62
2021/12/25 13:57:49;;;;;;;0.85;0.80;;;22.50;37.90;;;;;;5042210;28;44655;-63
2021/12/25 14:00:35;;;;;;;1.48;0.80;;;22.60;37.80;;;;;;5042363;28;43395;-64
2021/12/25 14:03:07;;;;;;;0.60;0.60;;;22.50;38.00;;;;;;5042772;28;43578;-62
2021/12/25 14:05:37;;;;;;;;;;;22.60;37.80;;;;;;5040764;28;43394;-64
2021/12/25 14:08:07;;;;;;;0.68;0.52;;;22.60;37.80;;;;;;5040317;28;44707;-63
2021/12/25 14:10:36;;;;;;;0.80;0.80;;;22.60;37.70;;;;;;5040929;28;43464;-63
2021/12/25 14:13:12;;;;;;;1.48;0.80;;;22.60;37.70;;;;;;5042475;28;43457;-63
2021/12/25 14:15:42;;;;;;;0.60;0.60;;;22.60;37.70;;;;;;5040519;28;43480;-63
2021/12/25 14:18:10;;;;;;;3.28;1.05;;;22.50;37.50;;;;;;5041635;28;44744;-63
2021/12/25 14:20:40;;;;;;;1.02;0.80;;;22.60;37.80;;;;;;5040778;28;44047;-64
2021/12/25 14:23:17;;;;;;;1.55;0.80;;;22.60;37.70;;;;;;5042079;28;43523;-63
2021/12/25 14:25:56;;;;;;;1.67;0.85;;;22.60;37.70;;;;;;5040858;28;43514;-63
2021/12/25 14:28:30;;;;;;;0.85;0.85;;;22.60;37.80;;;;;;5073591;28;43942;-63
2021/12/25 14:31:13;;;;;;;0.75;0.73;;;22.60;37.90;;;;;;5041134;28;43443;-62
2021/12/25 14:33:57;;;;;;;0.82;0.60;;;22.50;37.50;;;;;;5037030;28;43553;-64
2021/12/25 14:36:27;;;;;;;0.80;0.65;;;22.50;37.70;;;;;;5037107;28;43499;-63
2021/12/25 14:38:55;;;;;;;0.93;0.85;;;22.50;37.60;;;;;;5041925;28;44027;-63
2021/12/25 14:41:32;;;;;;;1.67;0.93;;;22.50;37.60;;;;;;5038828;28;43524;-63
2021/12/25 14:44:19;;;;;;;1.15;0.75;;;22.50;37.60;;;;;;5041426;28;43544;-64
2021/12/25 14:46:48;;;;;;;0.95;0.85;;;22.40;37.50;;;;;;5041447;28;43590;-63
2021/12/25 14:49:16;;;;;;;1.02;0.80;;;22.50;37.60;;;;;;5041293;28;43801;-63
2021/12/25 14:51:46;;;;;;;0.80;0.80;;;22.50;37.60;;;;;;5041514;28;43452;-63
2021/12/25 14:54:14;;;;;;;0.55;0.55;;;22.50;37.30;;;;;;5041518;28;43502;-64